Monsenhor Paulo, Brazil
Current Conditions -  °F | °C
As of 2:00 PM on Friday 21 Nov 2014 (Local Time) from SBGW Reporting Station
Scattered Clouds Scattered Clouds  
Wind Chill: 93°   Ceiling: Unl
Heat Index: 93°   Visibility: 6mi
Dew Point: 57°   Wind: 5mph
Humidity: 30%   Direction: 220°SW
Pressure: 29.94"   Gusts: NA
Location:  21.76°S, 45.54°W
Report Text: SBGW 211600Z 22004KT 9999 SCT030 34/14 Q1014
Loading
Personal Weather Stations






























Interactive Weather Map New forecast layout! Learn more

10-Day Weather Forecast

Advertisements
Track Severe Weather on mobile